Time;durP1;ratioP1;P1;durP2;ratioP2;P2;SDS_P1;SDS_P2;PMS_P1;PMS_P2;Temp;Humidity;BMP_temperature;BMP_pressure;BME280_temperature;BME280_humidity;BME280_pressure;Samples;Min_cycle;Max_cycle;Signal;HPM_P1;HPM_P2
2023/01/28 00:05:00;;;;;;;16.87;6.90;;;2.70;99.90;;;0.20;87.86;100117.31;10625196;27;20067;-81
2023/01/28 00:10:03;;;;;;;18.53;7.83;;;2.70;99.90;;;0.21;87.80;100116.38;10647917;27;20071;-82
2023/01/28 00:15:07;;;;;;;18.80;7.67;;;2.70;99.90;;;0.21;86.89;100119.81;10613820;27;20059;-82
2023/01/28 00:20:11;;;;;;;16.03;7.53;;;2.70;99.90;;;0.23;86.86;100125.78;10614271;27;20059;-81
2023/01/28 00:25:15;;;;;;;18.17;7.73;;;2.70;99.90;;;0.25;86.89;100123.91;10646423;27;20416;-82
2023/01/28 00:30:19;;;;;;;17.13;8.07;;;2.80;99.90;;;0.24;86.48;100126.63;10651074;27;20055;-81
2023/01/28 00:35:22;;;;;;;18.40;8.43;;;2.80;99.90;;;0.23;86.53;100133.63;10657155;27;20083;-81
2023/01/28 00:40:25;;;;;;;22.17;9.77;;;2.80;99.90;;;0.21;86.61;100122.44;10637845;27;20066;-81
2023/01/28 00:45:28;;;;;;;18.30;7.60;;;2.80;99.90;;;0.22;86.73;100129.34;10612022;27;20056;-81
2023/01/28 00:50:31;;;;;;;19.17;8.07;;;2.70;99.90;;;0.21;86.98;100132.91;10668839;27;20480;-81
2023/01/28 00:55:34;;;;;;;20.37;8.77;;;2.70;99.90;;;0.22;86.85;100134.56;10647094;27;20462;-81
2023/01/28 01:00:37;;;;;;;18.73;7.37;;;2.70;99.90;;;0.17;86.76;100135.81;10677781;27;20063;-82
2023/01/28 01:05:40;;;;;;;21.60;8.30;;;2.70;99.90;;;0.16;87.34;100144.59;10678266;27;20123;-81
2023/01/28 01:10:43;;;;;;;19.70;9.10;;;2.60;99.90;;;0.12;87.33;100143.13;10649361;27;20055;-81
2023/01/28 01:15:46;;;;;;;20.37;8.43;;;2.60;99.90;;;0.11;87.60;100144.91;10632305;27;20054;-80
2023/01/28 01:20:49;;;;;;;18.43;8.40;;;2.60;99.90;;;0.09;87.55;100140.72;10674626;27;20085;-81
2023/01/28 01:25:54;;;;;;;19.87;8.20;;;2.50;99.90;;;0.07;88.26;100142.63;10684962;27;20164;-81
2023/01/28 01:31:18;;;;;;;21.93;9.63;;;2.50;99.90;;;0.05;88.59;100150.53;10632171;27;20059;-82
2023/01/28 01:36:25;;;;;;;17.10;7.67;;;2.50;99.90;;;0.04;89.11;100138.41;10646353;27;20416;-82
2023/01/28 01:41:31;;;;;;;19.60;8.23;;;2.50;99.90;;;0.05;88.96;100153.16;10631055;27;20070;-82
2023/01/28 01:46:49;;;;;;;17.67;7.77;;;2.50;99.90;;;0.07;89.18;100151.28;10655462;27;20097;-81
2023/01/28 01:52:13;;;;;;;17.07;7.77;;;2.60;99.90;;;0.06;89.34;100147.00;10675507;27;20059;-82
2023/01/28 01:57:25;;;;;;;22.13;8.90;;;2.60;99.90;;;0.07;89.75;100151.28;10688472;27;20303;-82
2023/01/28 02:02:29;;;;;;;15.27;7.77;;;2.60;99.90;;;0.01;89.65;100136.03;10689052;27;20058;-82
2023/01/28 02:07:33;;;;;;;22.63;9.00;;;2.60;99.90;;;0.07;89.60;100151.28;10636978;27;20094;-82
2023/01/28 02:12:45;;;;;;;14.07;7.53;;;2.60;99.90;;;0.06;90.41;100143.53;10645913;27;20051;-82
2023/01/28 02:17:49;;;;;;;22.38;8.57;;;2.60;99.90;;;0.08;90.38;100160.78;10669648;27;20055;-82
2023/01/28 02:23:20;;;;;;;20.73;8.73;;;2.60;99.90;;;0.09;90.80;100152.00;10641403;27;20087;-82
2023/01/28 02:28:28;;;;;;;23.20;8.73;;;2.60;99.90;;;0.04;91.02;100151.47;10690308;27;20537;-82
2023/01/28 02:33:57;;;;;;;18.33;8.13;;;2.60;99.90;;;0.01;91.45;100145.63;10674851;27;20062;-82
2023/01/28 02:39:12;;;;;;;30.07;11.90;;;2.60;99.90;;;-0.07;91.41;100144.34;10665641;27;20062;-82
2023/01/28 02:44:15;;;;;;;23.57;9.03;;;2.50;99.90;;;-0.05;91.47;100155.56;10665635;27;20059;-82
2023/01/28 02:49:44;;;;;;;27.70;11.67;;;2.50;99.90;;;-0.07;91.51;100148.72;10649000;27;20115;-82
2023/01/28 02:55:07;;;;;;;21.90;9.20;;;2.40;99.90;;;-0.12;91.41;100150.81;10647889;27;20512;-82
2023/01/28 03:00:26;;;;;;;26.33;10.83;;;2.40;99.90;;;-0.12;91.37;100142.97;10689345;27;20059;-81
2023/01/28 03:05:39;;;;;;;27.77;11.17;;;2.30;99.90;;;-0.14;91.61;100137.03;10684712;27;20109;-82
2023/01/28 03:10:42;;;;;;;23.27;10.30;;;2.30;99.90;;;-0.14;91.70;100144.84;10678874;27;20059;-82
2023/01/28 03:37:33;;;;;;;19.40;8.80;;;2.40;99.90;;;-0.11;92.70;100144.66;10655032;27;20059;-81
2023/01/28 03:42:36;;;;;;;20.80;7.97;;;2.40;99.90;;;-0.12;92.92;100148.19;10668369;27;20127;-82
2023/01/28 03:47:40;;;;;;;19.63;8.30;;;2.40;99.90;;;-0.08;92.90;100160.13;10696545;27;20058;-82
2023/01/28 03:52:43;;;;;;;18.97;7.93;;;2.40;99.90;;;-0.08;93.02;100154.91;10654587;27;20054;-82
2023/01/28 03:57:46;;;;;;;22.23;8.87;;;2.40;99.90;;;-0.10;92.92;100159.41;10662382;27;20059;-82
2023/01/28 04:02:49;;;;;;;17.50;7.67;;;2.40;99.90;;;-0.11;92.98;100155.97;10680398;27;20057;-81
2023/01/28 04:07:56;;;;;;;18.60;8.37;;;2.40;99.90;;;-0.12;92.92;100156.03;10676808;27;20050;-82
2023/01/28 04:12:59;;;;;;;20.23;7.80;;;2.40;99.90;;;-0.13;93.18;100154.38;10671571;27;20135;-82
2023/01/28 04:18:03;;;;;;;23.97;9.17;;;2.40;99.90;;;-0.13;93.38;100155.19;10676666;27;20138;-82
2023/01/28 04:23:09;;;;;;;20.13;8.57;;;2.40;99.90;;;-0.12;93.10;100161.25;10653877;27;20059;-81
2023/01/28 04:28:12;;;;;;;18.27;8.13;;;2.40;99.90;;;-0.14;93.87;100163.13;10692859;27;20059;-82
2023/01/28 04:33:14;;;;;;;20.00;8.03;;;2.40;99.90;;;-0.13;93.97;100167.41;10685545;27;20146;-81
2023/01/28 04:38:17;;;;;;;21.37;8.70;;;2.40;99.90;;;-0.13;94.06;100167.41;10669600;27;20043;-82
2023/01/28 04:43:20;;;;;;;21.60;9.40;;;2.40;99.90;;;-0.11;93.87;100173.41;10670485;27;20055;-81
2023/01/28 04:48:24;;;;;;;21.07;8.50;;;2.40;99.90;;;-0.08;93.82;100173.19;10674902;27;20066;-81
2023/01/28 04:53:26;;;;;;;22.70;9.83;;;2.40;99.90;;;-0.05;93.69;100179.06;10652977;27;20108;-82
2023/01/28 04:58:30;;;;;;;22.10;9.07;;;2.40;99.90;;;-0.05;93.42;100179.06;10681607;27;20082;-81
2023/01/28 05:03:32;;;;;;;27.57;11.20;;;2.50;99.90;;;-0.03;93.83;100187.63;10667367;27;20054;-81
2023/01/28 05:08:38;;;;;;;24.90;10.63;;;2.50;99.90;;;-0.07;93.78;100186.13;10673887;27;20458;-81
2023/01/28 05:13:41;;;;;;;23.90;9.37;;;2.50;99.90;;;-0.06;93.30;100192.19;10653253;27;20057;-81
2023/01/28 05:18:46;;;;;;;26.10;10.73;;;2.50;99.90;;;-0.09;93.64;100192.41;10666477;27;20171;-81
2023/01/28 05:23:49;;;;;;;32.60;11.83;;;2.40;99.90;;;-0.06;94.28;100203.50;10667888;27;20059;-81
2023/01/28 05:28:52;;;;;;;21.63;8.63;;;2.50;99.90;;;-0.04;94.56;100196.41;10673608;27;20055;-81
2023/01/28 05:33:56;;;;;;;23.73;9.70;;;2.50;99.90;;;-0.05;94.22;100199.97;10666692;27;20093;-81
2023/01/28 05:38:59;;;;;;;27.00;10.97;;;2.50;99.90;;;-0.05;94.46;100209.56;10662239;27;20058;-81
2023/01/28 05:44:03;;;;;;;26.57;10.47;;;2.50;99.90;;;-0.06;94.85;100219.19;10662094;27;20059;-81
2023/01/28 05:49:11;;;;;;;28.90;11.67;;;2.40;99.90;;;-0.10;94.92;100222.09;10642931;27;20062;-81
2023/01/28 05:54:14;;;;;;;27.70;11.37;;;2.40;99.90;;;-0.10;94.64;100224.69;10661835;27;20449;-81
2023/01/28 05:59:17;;;;;;;26.13;11.60;;;2.40;99.90;;;-0.10;95.10;100216.88;10639166;27;20055;-81
2023/01/28 06:04:20;;;;;;;27.00;10.90;;;2.40;99.90;;;-0.13;95.07;100222.28;10693245;27;20138;-82
2023/01/28 06:09:23;;;;;;;32.70;12.67;;;2.40;99.90;;;-0.15;95.35;100234.59;10646239;27;20059;-81
2023/01/28 06:14:26;;;;;;;26.33;10.97;;;2.30;99.90;;;-0.19;95.48;100233.94;10646845;27;20055;-81
2023/01/28 06:19:29;;;;;;;24.27;10.43;;;2.30;99.90;;;-0.20;95.34;100242.72;10659752;27;20055;-81
2023/01/28 06:24:32;;;;;;;27.87;11.03;;;2.30;99.90;;;-0.18;95.41;100255.69;10660166;27;20059;-82
2023/01/28 06:29:35;;;;;;;27.67;11.37;;;2.30;99.90;;;-0.16;95.64;100262.50;10660682;27;20103;-81
2023/01/28 06:34:39;;;;;;;27.77;10.80;;;2.30;99.90;;;-0.17;95.47;100263.44;10667198;27;20081;-87
2023/01/28 06:39:42;;;;;;;34.77;12.40;;;2.30;99.90;;;-0.14;95.64;100265.00;10660092;27;20062;-87
2023/01/28 06:44:44;;;;;;;26.13;10.93;;;2.30;99.90;;;-0.13;95.52;100283.19;10683836;27;20055;-81
2023/01/28 06:49:47;;;;;;;34.07;13.17;;;2.40;99.90;;;-0.15;95.76;100274.63;10661603;27;20051;-81
2023/01/28 06:54:52;;;;;;;33.50;12.63;;;2.30;99.90;;;-0.15;95.99;100287.69;10661492;27;20508;-81
2023/01/28 06:59:55;;;;;;;31.33;13.57;;;2.30;99.90;;;-0.14;96.20;100288.50;10656601;27;20054;-81
2023/01/28 07:04:58;;;;;;;34.40;13.10;;;2.30;99.90;;;-0.11;96.42;100299.63;10653026;27;20071;-80
2023/01/28 07:10:01;;;;;;;25.87;11.23;;;2.30;99.90;;;-0.08;96.40;100304.63;10662947;27;20062;-83
2023/01/28 07:15:05;;;;;;;33.23;12.00;;;2.40;99.90;;;-0.02;96.56;100303.41;10670955;27;20567;-82
2023/01/28 07:20:14;;;;;;;32.43;12.93;;;2.40;99.90;;;-0.02;96.70;100306.03;10680443;27;20054;-81
2023/01/28 07:25:18;;;;;;;29.43;12.03;;;2.50;99.90;;;-0.02;96.85;100304.25;10667209;27;20059;-83
2023/01/28 07:30:22;;;;;;;32.53;12.80;;;2.50;99.90;;;0.06;96.88;100329.03;10641970;27;21022;-81
2023/01/28 07:35:26;;;;;;;31.60;13.27;;;2.50;99.90;;;0.07;97.00;100325.50;10676293;27;20070;-81
2023/01/28 07:40:29;;;;;;;29.83;12.60;;;2.50;99.90;;;0.08;96.90;100322.78;10678800;27;20066;-81
2023/01/28 07:45:33;;;;;;;30.10;11.10;;;2.50;99.90;;;0.11;96.80;100324.38;10655054;27;20062;-81
2023/01/28 07:50:37;;;;;;;30.13;12.47;;;2.50;99.90;;;0.16;96.87;100325.75;10642211;27;20047;-81
2023/01/28 07:55:40;;;;;;;28.37;11.57;;;2.60;99.90;;;0.18;97.00;100333.47;10642944;27;20492;-81
2023/01/28 08:00:43;;;;;;;30.10;11.77;;;2.60;99.90;;;0.18;96.94;100334.34;10672286;27;20086;-81
2023/01/28 08:05:50;;;;;;;28.60;12.27;;;2.60;99.90;;;0.20;96.48;100340.31;10696865;27;20059;-81
2023/01/28 08:10:53;;;;;;;26.70;11.63;;;2.60;99.90;;;0.26;96.74;100342.53;10671435;27;20144;-81
2023/01/28 08:15:56;;;;;;;26.60;10.87;;;2.70;99.90;;;0.34;96.71;100343.78;10673256;27;20430;-81
2023/01/28 08:21:01;;;;;;;28.10;12.10;;;2.70;99.90;;;0.42;96.52;100351.97;10663623;27;20154;-80
2023/01/28 08:26:04;;;;;;;23.23;10.37;;;2.80;99.90;;;0.49;96.80;100354.13;10646622;27;20062;-80
2023/01/28 08:31:07;;;;;;;23.97;10.87;;;2.90;99.90;;;0.57;96.08;100353.59;10652930;27;20074;-81
2023/01/28 08:36:11;;;;;;;28.07;13.47;;;2.90;99.90;;;0.69;96.31;100358.03;10646411;27;20055;-81
2023/01/28 08:41:14;;;;;;;21.77;10.00;;;3.00;99.90;;;0.82;96.12;100351.97;10659065;27;20061;-81
2023/01/28 08:46:17;;;;;;;20.43;9.93;;;3.20;99.90;;;0.95;95.77;100369.38;10680066;27;20500;-81
2023/01/28 08:51:20;;;;;;;23.83;10.47;;;3.30;99.90;;;1.03;95.21;100358.41;10682728;27;20062;-82
2023/01/28 08:56:22;;;;;;;22.20;10.33;;;3.40;99.90;;;1.18;94.83;100352.13;10658220;27;20653;-82
2023/01/28 09:01:28;;;;;;;23.17;10.53;;;3.50;99.90;;;1.43;94.65;100351.28;10637979;27;20059;-82
2023/01/28 09:06:31;;;;;;;20.43;9.80;;;3.70;99.90;;;1.64;94.27;100345.53;10662402;27;20213;-81
2023/01/28 09:11:34;;;;;;;25.47;10.30;;;4.00;99.90;;;1.76;92.93;100353.34;10676986;27;20058;-82
2023/01/28 09:16:37;;;;;;;21.90;9.20;;;4.10;99.90;;;1.83;91.83;100357.22;10659801;27;20134;-82
2023/01/28 09:21:40;;;;;;;22.10;11.40;;;4.20;99.90;;;1.91;90.70;100363.69;10666975;27;20055;-81
2023/01/28 09:26:44;;;;;;;19.47;9.30;;;4.30;99.90;;;1.90;89.96;100373.34;10650178;27;20083;-81
2023/01/28 09:31:47;;;;;;;17.67;8.87;;;4.30;99.90;;;1.91;88.97;100374.16;10646726;27;20061;-82
2023/01/28 09:36:50;;;;;;;21.23;8.70;;;4.30;99.90;;;1.99;88.88;100371.88;10660570;27;20063;-81
2023/01/28 09:42:35;;;;;;;20.10;8.53;;;4.40;99.90;;;2.13;87.84;100376.94;10635108;27;20062;-82
2023/01/28 09:47:52;;;;;;;19.83;8.47;;;4.50;99.90;;;2.20;86.88;100375.56;10660744;27;20058;-81
2023/01/28 09:53:19;;;;;;;24.80;9.43;;;4.60;99.90;;;2.29;86.14;100363.59;10658770;27;20055;-82
2023/01/28 09:58:22;;;;;;;17.77;8.83;;;4.70;99.90;;;2.40;85.04;100367.13;10656434;27;20059;-81
2023/01/28 10:03:56;;;;;;;21.53;9.30;;;4.80;99.90;;;2.59;84.82;100373.63;10666269;27;20082;-81
2023/01/28 10:09:32;;;;;;;27.87;11.03;;;5.00;99.90;;;2.61;83.88;100359.44;10699253;27;20058;-82
2023/01/28 10:14:49;;;;;;;18.10;9.17;;;5.00;99.90;;;2.59;82.99;100355.28;10657537;27;20059;-81
2023/01/28 10:20:16;;;;;;;19.83;8.77;;;5.00;99.90;;;2.57;82.31;100359.78;10665243;27;20051;-81
2023/01/28 10:25:24;;;;;;;19.80;8.63;;;5.00;99.90;;;2.60;82.74;100351.69;10667443;27;20149;-80
2023/01/28 10:30:33;;;;;;;18.37;7.53;;;5.00;99.90;;;2.68;82.56;100367.69;10656500;27;20849;-81
2023/01/28 10:35:41;;;;;;;13.13;6.73;;;5.10;99.90;;;2.77;81.86;100367.03;10655766;27;20061;-81
2023/01/28 10:40:46;;;;;;;13.07;7.07;;;5.20;99.90;;;2.85;79.84;100363.81;10645958;27;20120;-81
2023/01/28 10:46:31;;;;;;;16.60;6.90;;;5.30;99.90;;;2.99;79.85;100358.38;10640025;27;20112;-81
2023/01/28 10:51:37;;;;;;;13.63;6.50;;;5.40;99.90;;;3.04;78.72;100363.28;10687760;27;20069;-81
2023/01/28 10:56:42;;;;;;;15.03;6.03;;;5.50;99.90;;;3.10;78.46;100363.66;10666546;27;20058;-80
2023/01/28 11:01:55;;;;;;;12.40;5.70;;;5.50;99.90;;;3.18;77.56;100363.09;10653563;27;20044;-80
2023/01/28 11:07:01;;;;;;;14.33;6.73;;;5.60;99.90;;;3.21;77.07;100363.69;10649654;27;20054;-80
2023/01/28 11:12:24;;;;;;;17.37;7.63;;;5.60;99.90;;;3.30;76.71;100351.66;10650901;27;20050;-80
2023/01/28 11:17:38;;;;;;;17.23;8.80;;;5.70;99.90;;;3.46;76.79;100359.16;10670098;27;20059;-80
2023/01/28 11:22:43;;;;;;;12.77;6.00;;;5.80;99.90;;;3.60;76.06;100351.06;10678441;27;20063;-80
2023/01/28 11:27:50;;;;;;;16.07;7.43;;;6.00;99.90;;;3.72;75.64;100346.66;10647156;27;20107;-80
2023/01/28 11:33:20;;;;;;;14.33;7.00;;;6.10;99.90;;;3.88;75.33;100341.00;10639695;27;20167;-80
2023/01/28 11:38:24;;;;;;;9.60;5.40;;;6.20;99.90;;;4.09;74.24;100338.47;10635257;27;20132;-80
2023/01/28 11:43:30;;;;;;;13.77;6.50;;;6.50;99.90;;;4.24;72.59;100337.22;10645326;27;20051;-80
2023/01/28 11:48:48;;;;;;;14.53;6.53;;;6.70;99.80;;;4.29;71.91;100337.69;10653507;27;20538;-80
2023/01/28 11:54:34;;;;;;;16.40;7.47;;;6.70;99.90;;;4.43;71.25;100337.41;10653150;27;20590;-80
2023/01/28 11:59:52;;;;;;;15.83;6.50;;;6.90;99.90;;;4.41;71.28;100326.16;10669766;27;20055;-79
2023/01/28 12:05:10;;;;;;;15.77;6.83;;;6.90;99.90;;;4.34;71.25;100319.75;10643274;27;20059;-80
2023/01/28 12:10:48;;;;;;;15.33;7.30;;;6.80;99.90;;;4.33;71.19;100325.13;10657635;27;20113;-80
2023/01/28 12:16:29;;;;;;;17.33;8.27;;;6.70;99.10;;;4.21;70.83;100324.34;10629389;27;20603;-80
2023/01/28 12:22:07;;;;;;;15.67;7.37;;;6.60;98.60;;;4.04;70.92;100320.44;10668821;27;20574;-80
2023/01/28 12:27:36;;;;;;;17.53;8.30;;;6.40;99.00;;;3.92;71.08;100324.88;10628433;27;20065;-79
2023/01/28 12:33:24;;;;;;;18.43;8.00;;;6.30;99.10;;;3.89;71.53;100324.25;10661827;27;20428;-79
2023/01/28 12:38:52;;;;;;;18.50;8.23;;;6.20;99.80;;;3.97;71.47;100320.09;10665093;27;20062;-79
2023/01/28 12:44:08;;;;;;;19.40;9.03;;;6.30;99.40;;;4.01;71.22;100324.13;10683322;27;20150;-79
2023/01/28 12:49:35;;;;;;;19.27;8.53;;;6.40;99.30;;;3.99;71.28;100327.84;10668966;27;20055;-79
2023/01/28 12:55:04;;;;;;;18.37;7.83;;;6.40;98.80;;;3.94;71.16;100332.63;10625699;27;20059;-80
2023/01/28 13:00:35;;;;;;;18.17;9.23;;;6.30;98.60;;;3.89;71.58;100327.72;10660491;27;20065;-79
2023/01/28 13:05:47;;;;;;;20.73;9.70;;;6.20;99.10;;;3.88;71.59;100336.56;10668547;27;20058;-79
2023/01/28 13:10:52;;;;;;;23.67;8.95;;;6.20;99.10;;;3.84;71.85;100343.06;10642147;27;20371;-79
2023/01/28 13:15:55;;;;;;;17.80;8.33;;;6.20;99.60;;;3.78;72.23;100346.16;10645679;27;20055;-80
2023/01/28 13:21:00;;;;;;;16.87;7.80;;;6.10;99.30;;;3.69;72.18;100345.09;10672972;27;20133;-80
2023/01/28 13:26:18;;;;;;;67.40;26.40;;;6.00;99.50;;;3.66;72.09;100355.84;10654208;27;20065;-81
2023/01/28 13:31:23;;;;;;;17.60;8.47;;;6.00;99.30;;;3.57;72.02;100358.34;10673616;27;20059;-81
2023/01/28 13:36:38;;;;;;;20.97;8.93;;;5.90;98.90;;;3.45;72.19;100360.97;10639635;27;20512;-81
2023/01/28 13:41:46;;;;;;;52.53;18.50;;;5.80;99.50;;;3.42;72.55;100366.47;10658804;27;20043;-81
2023/01/28 13:46:49;;;;;;;17.30;9.20;;;5.80;99.60;;;3.33;72.46;100377.66;10640198;27;20059;-81
2023/01/28 13:52:10;;;;;;;23.63;10.37;;;5.70;99.40;;;3.32;73.06;100383.88;10579635;27;20102;-80
2023/01/28 13:57:37;;;;;;;20.10;9.57;;;5.60;99.70;;;3.28;72.88;100392.09;10612551;27;20230;-81
2023/01/28 14:03:08;;;;;;;19.40;10.30;;;5.60;99.20;;;3.23;73.04;100385.41;10615574;27;20416;-81
2023/01/28 14:08:23;;;;;;;16.90;8.27;;;5.60;99.80;;;3.18;72.87;100389.34;10648787;27;20062;-80
2023/01/28 14:14:04;;;;;;;16.37;7.80;;;5.50;99.70;;;3.14;73.11;100393.16;10637717;27;20466;-80
2023/01/28 14:19:13;;;;;;;21.57;9.00;;;5.50;99.90;;;3.12;73.40;100397.66;10607828;27;20123;-81
2023/01/28 14:24:18;;;;;;;13.73;7.37;;;5.50;99.90;;;3.06;73.10;100400.75;10586158;27;20059;-81
2023/01/28 14:29:56;;;;;;;16.03;8.07;;;5.50;99.70;;;2.99;73.05;100402.16;10623041;27;20059;-81
2023/01/28 14:35:08;;;;;;;25.27;9.23;;;5.40;99.50;;;2.90;73.75;100407.16;10627481;27;20056;-80
2023/01/28 14:40:15;;;;;;;17.53;8.17;;;5.30;99.90;;;2.84;73.71;100410.22;10627994;27;20062;-80
2023/01/28 14:45:24;;;;;;;18.47;8.83;;;5.20;99.90;;;2.78;74.63;100408.06;10604358;27;20420;-80
2023/01/28 14:50:52;;;;;;;21.40;9.73;;;5.20;99.90;;;2.69;75.74;100413.97;10644067;27;20456;-80
2023/01/28 14:56:19;;;;;;;23.90;10.13;;;5.10;99.90;;;2.60;76.43;100423.38;10623827;27;20066;-81
2023/01/28 15:01:28;;;;;;;20.20;9.07;;;5.00;99.90;;;2.44;77.33;100421.94;10646600;27;20116;-81
2023/01/28 15:06:34;;;;;;;19.60;9.60;;;4.90;99.90;;;2.32;77.40;100432.38;10672427;27;20151;-81
2023/01/28 15:11:42;;;;;;;22.83;10.47;;;4.70;99.90;;;2.19;78.40;100436.81;10610166;27;20059;-80
2023/01/28 15:16:49;;;;;;;20.23;8.83;;;4.60;99.90;;;2.09;79.07;100436.63;10625704;27;20060;-80
2023/01/28 15:21:56;;;;;;;20.20;9.67;;;4.50;99.90;;;2.01;79.39;100443.34;10650551;27;20112;-80
2023/01/28 15:27:00;;;;;;;18.60;9.90;;;4.40;99.90;;;1.93;79.88;100450.94;10648000;27;20145;-80
2023/01/28 15:32:05;;;;;;;31.17;12.63;;;4.30;99.90;;;1.83;80.32;100461.19;10626031;27;20078;-85
2023/01/28 15:37:09;;;;;;;23.77;11.47;;;4.20;99.90;;;1.73;81.00;100460.13;10608161;27;20108;-85
2023/01/28 15:42:28;;;;;;;49.37;21.73;;;4.10;99.90;;;1.64;81.25;100461.63;10623842;27;20147;-82
2023/01/28 15:47:33;;;;;;;37.00;19.00;;;4.00;99.90;;;1.60;81.76;100479.31;10654609;27;20063;-81
2023/01/28 15:52:41;;;;;;;22.47;9.60;;;4.00;99.90;;;1.52;82.13;100472.94;10675627;27;20059;-80
2023/01/28 15:57:44;;;;;;;24.00;11.23;;;3.90;99.90;;;1.47;82.49;100475.00;10658484;27;20523;-80
2023/01/28 16:02:50;;;;;;;20.53;9.93;;;3.80;99.90;;;1.40;82.63;100485.06;10690715;27;20089;-80
2023/01/28 16:07:55;;;;;;;18.50;8.50;;;3.80;99.90;;;1.34;83.09;100496.78;10671153;27;20439;-80
2023/01/28 16:13:06;;;;;;;16.87;8.13;;;3.70;99.90;;;1.29;83.68;100504.09;10655072;27;20051;-80
2023/01/28 16:18:29;;;;;;;18.15;7.30;;;3.70;99.90;;;1.26;84.10;100512.16;10686744;27;20063;-80
2023/01/28 16:23:32;;;;;;;16.40;8.00;;;3.60;99.90;;;1.22;84.19;100513.28;10687086;27;20062;-80
2023/01/28 16:28:35;;;;;;;16.90;7.77;;;3.60;99.90;;;1.17;84.69;100514.53;10661092;27;20055;-80
2023/01/28 16:33:38;;;;;;;17.83;8.07;;;3.50;99.90;;;1.15;85.17;100530.34;10642033;27;20055;-80
2023/01/28 16:38:41;;;;;;;20.87;9.27;;;3.50;99.90;;;1.12;85.31;100533.16;10662743;27;20051;-80
2023/01/28 16:43:44;;;;;;;19.03;8.93;;;3.50;99.90;;;1.09;85.30;100532.53;10651921;27;20171;-79
2023/01/28 16:48:47;;;;;;;24.47;10.50;;;3.50;99.90;;;1.09;86.11;100538.59;10665820;27;20074;-80
2023/01/28 16:53:50;;;;;;;22.83;9.80;;;3.40;99.90;;;1.05;86.55;100534.50;10699689;27;20063;-80
2023/01/28 16:58:54;;;;;;;23.23;10.20;;;3.40;99.90;;;1.03;86.69;100536.38;10625562;27;20061;-79
2023/01/28 17:03:57;;;;;;;25.27;10.60;;;3.40;99.90;;;0.99;87.24;100534.88;10630551;27;20063;-78
2023/01/28 17:09:00;;;;;;;22.33;11.17;;;3.40;99.90;;;0.94;87.29;100536.94;10678691;27;20062;-79
2023/01/28 17:14:03;;;;;;;24.77;9.97;;;3.30;99.90;;;0.90;88.01;100545.91;10646253;27;20113;-80
2023/01/28 17:19:06;;;;;;;23.73;9.87;;;3.30;99.90;;;0.88;88.10;100545.19;10639633;27;20061;-80
2023/01/28 17:24:09;;;;;;;23.00;10.90;;;3.30;99.90;;;0.87;88.25;100553.97;10657716;27;20081;-80
2023/01/28 17:29:12;;;;;;;21.90;10.03;;;3.20;99.90;;;0.83;88.92;100553.31;10667813;27;20111;-80
2023/01/28 17:34:15;;;;;;;21.70;10.43;;;3.20;99.90;;;0.82;89.02;100567.34;10671566;27;20134;-80
2023/01/28 17:39:18;;;;;;;19.63;9.13;;;3.20;99.90;;;0.80;89.38;100570.06;10677121;27;20054;-80
2023/01/28 17:44:21;;;;;;;22.70;10.23;;;3.20;99.90;;;0.79;89.55;100578.84;10648519;27;20548;-80
2023/01/28 17:49:24;;;;;;;21.07;10.40;;;3.20;99.90;;;0.79;89.72;100583.25;10641396;27;20085;-79
2023/01/28 17:54:27;;;;;;;23.97;9.90;;;3.20;99.90;;;0.78;89.60;100585.03;10693370;27;20456;-80
2023/01/28 17:59:30;;;;;;;26.27;11.43;;;3.20;99.90;;;0.76;89.84;100594.72;10695310;27;20066;-80
2023/01/28 18:04:38;;;;;;;21.97;11.33;;;3.20;99.90;;;0.76;90.19;100599.13;10638643;27;20495;-81
2023/01/28 18:09:44;;;;;;;31.90;12.70;;;3.20;99.90;;;0.75;90.65;100597.44;10652040;27;20521;-80
2023/01/28 18:14:47;;;;;;;25.40;11.37;;;3.20;99.90;;;0.75;90.36;100602.69;10646046;27;20059;-80
2023/01/28 18:19:51;;;;;;;19.00;8.73;;;3.20;99.90;;;0.76;90.53;100605.19;10676808;27;20104;-80
2023/01/28 18:24:54;;;;;;;19.13;8.70;;;3.20;99.90;;;0.75;90.39;100613.97;10665642;27;20051;-79
2023/01/28 18:29:57;;;;;;;21.27;8.50;;;3.20;99.90;;;0.75;90.58;100613.97;10661885;27;20424;-80
2023/01/28 18:35:05;;;;;;;24.33;9.00;;;3.20;99.90;;;0.76;90.32;100610.44;10643128;27;20093;-80
2023/01/28 18:40:09;;;;;;;21.13;8.20;;;3.20;99.90;;;0.75;90.01;100613.97;10636472;27;20109;-80
2023/01/28 18:45:12;;;;;;;22.30;8.70;;;3.20;99.90;;;0.75;89.54;100616.59;10636286;27;20055;-80
2023/01/28 18:50:15;;;;;;;20.43;8.63;;;3.20;99.90;;;0.77;89.19;100621.72;10660057;27;20117;-81
2023/01/28 18:55:20;;;;;;;19.37;9.13;;;3.20;99.90;;;0.75;89.02;100618.38;10641099;27;20055;-81
2023/01/28 19:00:23;;;;;;;21.97;8.73;;;3.20;99.90;;;0.77;89.48;100622.56;10645995;27;20051;-80
2023/01/28 19:05:32;;;;;;;18.53;8.90;;;3.20;99.90;;;0.77;88.88;100637.44;10650809;27;20146;-79
2023/01/28 19:10:35;;;;;;;20.33;9.37;;;3.20;99.90;;;0.75;88.93;100632.28;10675021;27;20097;-82
2023/01/28 19:15:39;;;;;;;21.30;9.30;;;3.20;99.90;;;0.73;88.93;100630.72;10668651;27;20066;-81
2023/01/28 19:20:42;;;;;;;20.70;10.27;;;3.20;99.90;;;0.73;88.88;100642.03;10640753;27;20081;-81
2023/01/28 19:25:45;;;;;;;19.90;9.03;;;3.10;99.90;;;0.72;88.83;100648.19;10639096;27;20070;-82
2023/01/28 19:30:48;;;;;;;20.13;9.50;;;3.10;99.90;;;0.67;88.64;100657.25;10670098;27;20058;-81
2023/01/28 19:35:59;;;;;;;20.93;9.43;;;3.10;99.90;;;0.62;89.39;100654.91;10679034;27;20061;-81
2023/01/28 19:41:06;;;;;;;20.23;9.15;;;3.00;99.90;;;0.57;89.44;100659.56;10645696;27;20055;-81
2023/01/28 19:46:14;;;;;;;21.33;9.90;;;3.00;99.90;;;0.50;89.47;100666.94;10636612;27;20058;-80
2023/01/28 19:51:18;;;;;;;19.40;8.93;;;2.90;99.90;;;0.48;89.85;100671.44;10666413;27;20066;-80
2023/01/28 19:56:24;;;;;;;24.80;10.30;;;2.90;99.90;;;0.44;90.22;100674.31;10655034;27;20059;-81
2023/01/28 20:01:27;;;;;;;38.77;12.23;;;2.80;99.90;;;0.37;90.64;100680.84;10658207;27;20055;-81
2023/01/28 20:06:34;;;;;;;22.60;9.70;;;2.80;99.90;;;0.36;90.90;100689.59;10643500;27;20500;-81
2023/01/28 20:11:37;;;;;;;20.33;9.73;;;2.80;99.90;;;0.31;90.89;100684.69;10641079;27;20512;-81
2023/01/28 20:16:40;;;;;;;17.77;8.30;;;2.70;99.90;;;0.31;91.38;100681.22;10668889;27;20494;-81
2023/01/28 20:21:46;;;;;;;20.97;7.93;;;2.70;99.90;;;0.33;91.42;100689.81;10649849;27;20111;-80
2023/01/28 20:26:49;;;;;;;20.57;8.23;;;2.80;99.90;;;0.32;91.37;100686.34;10685085;27;20059;-81
2023/01/28 20:31:54;;;;;;;22.17;9.43;;;2.70;99.90;;;0.32;91.93;100690.75;10664774;27;20475;-81
2023/01/28 20:37:18;;;;;;;25.07;10.00;;;2.70;99.90;;;0.28;91.54;100689.22;10660352;27;20055;-80
2023/01/28 20:42:21;;;;;;;26.00;10.73;;;2.70;99.90;;;0.26;91.22;100691.94;10688653;27;20170;-80
2023/01/28 20:47:24;;;;;;;22.40;9.60;;;2.70;99.90;;;0.21;91.46;100697.44;10678807;27;20063;-80
2023/01/28 20:52:27;;;;;;;26.17;11.00;;;2.60;99.90;;;0.19;91.82;100701.91;10661222;27;20066;-81
2023/01/28 20:57:30;;;;;;;24.60;9.93;;;2.60;99.90;;;0.20;91.55;100708.81;10647017;27;20063;-81
2023/01/28 21:02:38;;;;;;;27.23;10.43;;;2.60;99.90;;;0.19;91.79;100709.75;10675266;27;20057;-80
2023/01/28 21:07:41;;;;;;;28.40;11.20;;;2.60;99.90;;;0.19;91.66;100729.81;10656744;27;20139;-80
2023/01/28 21:12:44;;;;;;;27.10;11.17;;;2.60;99.90;;;0.19;91.84;100735.91;10656347;27;20146;-81
2023/01/28 21:17:47;;;;;;;27.73;10.87;;;2.60;99.90;;;0.16;92.01;100730.00;10640542;27;20051;-80
2023/01/28 21:22:54;;;;;;;29.53;12.07;;;2.60;99.90;;;0.15;92.10;100736.16;10669970;27;20157;-80
2023/01/28 21:27:57;;;;;;;25.47;10.47;;;2.60;99.90;;;0.15;91.96;100744.84;10660095;27;20571;-82
2023/01/28 21:33:00;;;;;;;25.87;11.07;;;2.60;99.90;;;0.12;92.07;100739.81;10649679;27;20070;-81
2023/01/28 21:38:04;;;;;;;22.00;9.60;;;2.50;99.90;;;0.14;91.95;100748.38;10665521;27;20055;-81